Almere Haven Meer informatie Almere Haven


Onweer radar Meer informatie blitzortung!


Regen radar Meer informatie rain snow radar


Apparatuur in gebruik:

Davis VP2

Meteohub

ALIX 1D

Web-Oke


Het weer levert geen direct gevaar op.    Er zijn geen waarschuwingen afgegeven.

METAR rapporten vliegvelden

   
EHAM - Amsterdam/Schiph, Netherlands
Afstand tot: WZW 42 km
Gewijzigd: 06-12-2019 14:55
Bewolking  
Bewolking  
   Wind: ZZW 37 km/h
Wind: ZZW 37 km/h
Temperatuur: 8°C
Voelt als: 3°C
Dauwpunt: 7°C
Vochtigheid: 93%
Barometer: 1003 hPa
Bewolking: Bewolking
Zicht: 9 km
Bewolking: Grotendeels bewolkt 213.4 m,
Bewolking 304.8 m
EHAM 061355Z 21020KT 9000 BKN007 OVC010 08/07 Q1003 RERA REDZ TEMPO 4000 -DZRA
EHDL - Deelen Rnlafb, Netherlands
Afstand tot: ZO 49 km
Gewijzigd: 06-12-2019 14:55
Nevel, Bewolking  
Nevel, Bewolking  
   Wind: ZZW 27.8 km/h
Wind: ZZW 27.8 km/h
Temperatuur: 6°C
Voelt als: 2°C
Dauwpunt: 6°C
Vochtigheid: 100%
Barometer: 1005 hPa
Bewolking: Bewolking
Zicht: 7 km
Bewolking: Gedeeltelijk bewolkt 121.9 m,
Bewolking 152.4 m
EHDL 061355Z AUTO 20015KT 150V260 7000 BR SCT004 OVC005 06/06 Q1005 REDZ YLO
EHKD - De Kooy (navy), Netherlands
Afstand tot: NW 72 km
Gewijzigd: 06-12-2019 14:55
Motregen, Bewolking  
Motregen, Bewolking  
   Wind: ZZW 42.6 km/h
Wind: ZZW 42.6 km/h
Temperatuur: 9°C
Voelt als: 4°C
Dauwpunt: 9°C
Vochtigheid: 100%
Barometer: 1000 hPa
Bewolking: Bewolking
Zicht: 3 km
Bewolking: Bewolking 91.4 m
EHKD 061355Z AUTO 21023KT 190V250 2700 R21/2700N DZ OVC003 09/09 Q1000 YLO 21020G30KT 5000 BR -RADZ SCT006 BKN010 TEMPO 21026G38KT 2500 DZRA BKN004
EHRD - Rotterdam Airpor, Netherlands
Afstand tot: ZW 80 km
Gewijzigd: 06-12-2019 14:55
Bewolking  
Bewolking  
   Wind: ZZW 40.7 km/h<br />Gust to 40.7 km/h
Wind: ZZW 40.7 km/h
Gust to 40.7 km/h
Temperatuur: 8°C
Voelt als: 3°C
Dauwpunt: 7°C
Vochtigheid: 93%
Barometer: 1003 hPa
Bewolking: Bewolking
Zicht: 7 km
Bewolking: Grotendeels bewolkt 182.9 m,
Bewolking 243.8 m
EHRD 061355Z AUTO 21022G33KT 180V240 7000 BKN006 OVC008 08/07 Q1003 TEMPO 9999
EHVK - Volkel Rnlafb, Netherlands
Afstand tot: ZZO 87 km
Gewijzigd: 06-12-2019 14:55
Bewolking  
Bewolking  
   Wind: ZZW 33.3 km/h<br />Gust to 33.3 km/h
Wind: ZZW 33.3 km/h
Gust to 33.3 km/h
Temperatuur: 7°C
Voelt als: 2°C
Dauwpunt: 6°C
Vochtigheid: 93%
Barometer: 1006 hPa
Bewolking: Bewolking
Zicht: meer dan 10 km
Bewolking: Grotendeels bewolkt 213.4 m,
Bewolking 243.8 m
EHVK 061355Z AUTO 21018G28KT 140V250 9999 BKN007/// OVC008/// 07/06 Q1006 GRN 21015KT 9999 SCT008 OVC010 TEMPO 22016G26KT 3500 RADZ BKN006 OVC007 RMK TS INFO NOT AVBL
EHLW - Leeuwarden Rnlaf, Netherlands
Afstand tot: NNO 95 km
Gewijzigd: 06-12-2019 15:03
Light Showers, , Grotendeels bewolkt  
Light Showers, , Grotendeels bewolkt  
   Wind: ZZW 33.3 km/h
Wind: ZZW 33.3 km/h
Temperatuur: 7°C
Voelt als: 2°C
Dauwpunt: 7°C
Vochtigheid: 100%
Barometer: 1000 hPa
Bewolking: Grotendeels bewolkt
Zicht: 2 km
Bewolking: Grotendeels bewolkt 91.4 m,
Grotendeels bewolkt 121.9 m,
Licht bewolkt 457.2 m
EHLW 061403Z AUTO 21018KT 170V230 2400 R23/2700D -SHUP BKN003 BKN004 FEW015CB 07/07 Q1000 YLO 21017G28KT 4500 DZRA SCT004 BKN005

Script ontwikkeld door  Saratoga-weather.org Aangepast voor de template door  Weerstation Leuven

U vindt ons ook hier:

Het Weer Aktueel

UK Metoffice

European Weather Network

Weather Underground

Benelux Weer Netwerk

AWEKAS